Budaghers, New Mexico
Current Conditions -  °F | °C
As of 3:49 PM on Saturday 25 Oct 2014 (Local Time) from KAEG Reporting Station
Clear Clear  
Wind Chill: 77°   Ceiling: Unl
Heat Index: 77°   Visibility: 10mi
Dew Point: 34°   Wind: 7mph
Humidity: 21%   Direction: NA
Pressure: 30.24"   Gusts: NA
Location:  35.4656°N, 106.615°W
Report Text: KAEG 252149Z VRB06KT 10SM SKC 25/01 A3024
Loading
Personal Weather Stations






























Interactive Weather Map
Tropical Storm Tracking
New forecast layout! Learn more

10-Day Weather Forecast

Advertisements
Track Severe Weather on mobile